Dobrodošli na spletni strani vremenske postaje Senovo. Vse informacije so informativnega značaja, saj vremenska postaja ni del državne mreže meteoroloških postaj. OBVESTILO: Letni količini padavin navedeni na spletni strani je potrebno prišteti 98,1 mm, zaradi izgube podatkov.


Posebna pozornost v zvezi z vremenskimi dogajanji ni potrebna.    Posebna pozornost v zvezi z vremenskimi dogajanji ni potrebna.

Pogled proti Armezu več informacij Pogled proti Armezu


Lisca več informacij Lisca


Radar strel več informacij blitzortung!


Radar padavin več informacij rain snow radar


Obiščite še:

Template documentation
and downloads

And another site



Weather Underground, zgodovina - Tekstovno

Dnevni povzetek za Avgust 10, 2017 Enote:  Metrično    Angleško   Obe
« Predhodni Dan
Naslednji Dan »
Dnevni Tedenski Mesečni Letni Po meri
  Višja: Nižja: Povprečje:
Temperatura: 34.0 °C 18.6 °C 24.5 °C
Točka rosišča: 24.3 °C 15.7 °C 19.3 °C
Vlažnost: 96 % 40 % 77 %
Hitrost vetra: 17.4 km/h 0.0 km/h 2.6 km/h
Sunki vetra: 45.7 km/h - -
Veter:- - South
Zračni tlak: 1016.8 hPa 1011.1 hPa -
Padavine: 20.1 mm    
Historical Graphs
 
 
Tabelarni podarki za Avgust 10, 2017
Čas Temperatura Točka rosišča Zračni tlak Veter Hitrost vetra Sunki vetra Vlažnost Intenziteta padavin (urna)
00:03 21.4 °C 19.7 °C 1015.1 hPa Calm     90 % 0.0 mm
00:08 21.3 °C 19.6 °C 1015.1 hPa Calm     90 % 0.0 mm
00:13 21.3 °C 19.6 °C 1015.1 hPa Calm     90 % 0.0 mm
00:18 21.2 °C 19.5 °C 1015.1 hPa Calm     90 % 0.0 mm
00:23 21.2 °C 19.5 °C 1015.1 hPa Calm     90 % 0.0 mm
00:28 21.1 °C 19.4 °C 1015.1 hPa Calm     90 % 0.0 mm
00:33 21.0 °C 19.3 °C 1015.1 hPa Calm     90 % 0.0 mm
00:38 20.9 °C 19.4 °C 1015.1 hPa Calm     91 % 0.0 mm
00:43 20.9 °C 19.4 °C 1015.1 hPa Calm     91 % 0.0 mm
00:48 20.8 °C 19.3 °C 1015.1 hPa Calm     91 % 0.0 mm
00:54 20.7 °C 19.2 °C 1015.1 hPa Calm     91 % 0.0 mm
00:59 20.6 °C 19.1 °C 1015.1 hPa Calm     91 % 0.0 mm
01:04 20.6 °C 19.1 °C 1015.1 hPa Calm     91 % 0.0 mm
01:09 20.5 °C 19.0 °C 1015.1 hPa Calm     91 % 0.0 mm
01:14 20.5 °C 19.0 °C 1015.1 hPa Calm     91 % 0.0 mm
01:19 20.4 °C 19.1 °C 1015.1 hPa Calm     92 % 0.0 mm
01:24 20.4 °C 19.1 °C 1015.1 hPa Calm     92 % 0.0 mm
01:29 20.3 °C 18.9 °C 1015.1 hPa Calm     92 % 0.0 mm
01:34 20.3 °C 18.9 °C 1015.1 hPa North 0.2 km/h   92 % 0.0 mm
01:39 20.3 °C 18.9 °C 1015.1 hPa North 0.2 km/h   92 % 0.0 mm
01:44 20.2 °C 18.8 °C 1015.1 hPa Calm     92 % 0.0 mm
01:49 20.1 °C 18.8 °C 1016.1 hPa Calm     92 % 0.0 mm
01:54 20.1 °C 18.8 °C 1016.1 hPa Calm     92 % 0.0 mm
01:59 20.0 °C 18.7 °C 1016.1 hPa Calm     92 % 0.0 mm
02:04 20.0 °C 18.7 °C 1016.1 hPa Calm     92 % 0.0 mm
02:09 20.0 °C 18.7 °C 1016.1 hPa Calm     92 % 0.0 mm
02:14 19.9 °C 18.6 °C 1016.1 hPa Calm     92 % 0.0 mm
02:19 19.9 °C 18.7 °C 1016.1 hPa Calm     93 % 0.0 mm
02:24 19.8 °C 18.6 °C 1016.1 hPa Calm     93 % 0.0 mm
02:29 19.8 °C 18.6 °C 1016.1 hPa Calm     93 % 0.0 mm
02:34 19.8 °C 18.6 °C 1016.1 hPa Calm     93 % 0.0 mm
02:39 19.7 °C 18.6 °C 1016.1 hPa Calm     93 % 0.0 mm
02:44 19.7 °C 18.6 °C 1016.1 hPa North 0.3 km/h   93 % 0.0 mm
02:49 19.6 °C 18.6 °C 1016.1 hPa West 0.5 km/h 3.5 km/h 94 % 0.0 mm
02:54 19.6 °C 18.4 °C 1016.1 hPa West 0.3 km/h 3.5 km/h 93 % 0.0 mm
02:59 19.5 °C 18.3 °C 1016.1 hPa Calm   1.4 km/h 93 % 0.0 mm
03:04 19.5 °C 18.3 °C 1016.8 hPa Calm     93 % 0.0 mm
03:09 19.4 °C 18.4 °C 1016.8 hPa Calm     94 % 0.0 mm
03:14 19.4 °C 18.4 °C 1016.8 hPa Calm     94 % 0.0 mm
03:19 19.4 °C 18.4 °C 1016.1 hPa Calm     94 % 0.0 mm
03:24 19.3 °C 18.3 °C 1016.1 hPa Calm     94 % 0.0 mm
03:29 19.3 °C 18.3 °C 1016.1 hPa Calm     94 % 0.0 mm
03:34 19.3 °C 18.3 °C 1016.1 hPa Calm     94 % 0.0 mm
03:39 19.2 °C 18.2 °C 1016.1 hPa Calm     94 % 0.0 mm
03:44 19.2 °C 18.2 °C 1016.1 hPa Calm     94 % 0.0 mm
03:49 19.1 °C 18.1 °C 1016.1 hPa Calm     94 % 0.0 mm
03:54 19.1 °C 18.1 °C 1016.1 hPa Calm     94 % 0.0 mm
03:59 19.0 °C 18.0 °C 1016.1 hPa Calm     94 % 0.0 mm
04:04 19.0 °C 18.0 °C 1016.1 hPa Calm     94 % 0.0 mm
04:09 18.9 °C 17.9 °C 1016.1 hPa Calm     94 % 0.0 mm
04:14 18.9 °C 17.9 °C 1016.1 hPa Calm     94 % 0.0 mm
04:19 18.8 °C 17.8 °C 1016.1 hPa Calm     94 % 0.0 mm
04:24 18.8 °C 17.8 °C 1016.1 hPa Calm     94 % 0.0 mm
04:29 18.7 °C 17.7 °C 1016.1 hPa Calm     94 % 0.0 mm
04:34 18.7 °C 17.7 °C 1016.1 hPa Calm     94 % 0.0 mm
04:39 18.7 °C 17.7 °C 1016.1 hPa Calm     94 % 0.0 mm
04:44 18.7 °C 17.7 °C 1016.1 hPa Calm     94 % 0.0 mm
04:49 18.6 °C 17.6 °C 1015.1 hPa Calm     94 % 0.0 mm
04:54 18.6 °C 17.6 °C 1015.1 hPa Calm     94 % 0.0 mm
04:59 18.6 °C 17.6 °C 1015.1 hPa Calm     94 % 0.0 mm
05:04 18.7 °C 17.7 °C 1016.1 hPa North 0.6 km/h 3.2 km/h 94 % 0.0 mm
05:09 18.7 °C 17.7 °C 1016.1 hPa North 0.8 km/h 3.2 km/h 94 % 0.0 mm
05:14 18.7 °C 17.9 °C 1016.1 hPa SE 0.2 km/h 1.8 km/h 95 % 0.0 mm
05:19 18.7 °C 17.9 °C 1016.8 hPa Calm     95 % 0.0 mm
05:22 18.7 °C 17.9 °C 1016.8 hPa WNW 0.6 km/h 4.3 km/h 95 % 0.0 mm
05:24 18.7 °C 17.9 °C 1016.8 hPa WNW 0.6 km/h 4.3 km/h 95 % 0.0 mm
05:29 18.8 °C 18.0 °C 1016.8 hPa WNW 0.6 km/h 4.3 km/h 95 % 0.0 mm
05:34 18.8 °C 18.0 °C 1016.1 hPa Calm     95 % 0.0 mm
05:39 18.8 °C 18.0 °C 1016.1 hPa Calm   4.0 km/h 95 % 0.0 mm
05:44 18.8 °C 18.0 °C 1016.1 hPa WSW 2.9 km/h 5.5 km/h 95 % 0.3 mm
05:49 18.9 °C 18.1 °C 1016.1 hPa WSW 4.2 km/h 5.5 km/h 95 % 0.5 mm
05:55 18.9 °C 18.1 °C 1016.1 hPa West 3.5 km/h 5.0 km/h 95 % 1.0 mm
06:00 19.0 °C 18.2 °C 1016.1 hPa NW 1.8 km/h 4.0 km/h 95 % 1.3 mm
06:05 19.0 °C 18.2 °C 1016.1 hPa NE 0.6 km/h 2.1 km/h 95 % 1.3 mm
06:10 19.0 °C 18.2 °C 1016.1 hPa NNW 1.8 km/h 6.9 km/h 95 % 1.5 mm
06:15 19.1 °C 18.3 °C 1016.1 hPa NNW 4.0 km/h 6.9 km/h 95 % 1.5 mm
06:20 19.1 °C 18.3 °C 1014.1 hPa NNW 2.7 km/h 6.9 km/h 95 % 1.5 mm
06:25 19.2 °C 18.4 °C 1014.1 hPa North 0.5 km/h 3.5 km/h 95 % 1.5 mm
06:30 19.3 °C 18.5 °C 1014.1 hPa West 1.0 km/h 5.5 km/h 95 % 1.5 mm
06:35 19.4 °C 18.7 °C 1014.1 hPa WSW 3.1 km/h 5.5 km/h 96 % 1.5 mm
06:40 19.6 °C 18.9 °C 1014.1 hPa WSW 2.6 km/h 5.0 km/h 96 % 1.5 mm
06:45 19.7 °C 19.1 °C 1014.1 hPa West 2.4 km/h 6.4 km/h 96 % 1.3 mm
06:50 19.9 °C 19.2 °C 1015.1 hPa West 2.6 km/h 6.4 km/h 96 % 1.0 mm
06:55 20.0 °C 19.3 °C 1015.1 hPa NW 2.4 km/h 6.9 km/h 96 % 0.8 mm
07:00 20.2 °C 19.6 °C 1015.1 hPa NW 2.4 km/h 6.9 km/h 96 % 0.3 mm
07:05 20.3 °C 19.7 °C 1016.1 hPa NW 1.3 km/h 5.0 km/h 96 % 0.3 mm
07:10 20.4 °C 19.7 °C 1016.1 hPa WNW 0.5 km/h 4.0 km/h 96 % 0.0 mm
07:15 20.5 °C 19.8 °C 1016.1 hPa Calm     96 % 0.0 mm
07:20 20.6 °C 19.9 °C 1016.1 hPa NNW 0.2 km/h 2.6 km/h 96 % 0.0 mm
07:25 20.7 °C 20.1 °C 1016.1 hPa WNW 1.3 km/h 4.7 km/h 96 % 0.0 mm
07:30 20.8 °C 20.1 °C 1016.1 hPa NW 1.6 km/h 4.7 km/h 96 % 0.0 mm
07:35 20.8 °C 20.1 °C 1016.1 hPa NE 0.8 km/h 4.3 km/h 96 % 0.0 mm
07:40 20.9 °C 20.2 °C 1016.1 hPa WSW 0.2 km/h 4.3 km/h 96 % 0.0 mm
07:45 21.0 °C 20.3 °C 1016.1 hPa WSW 2.3 km/h 5.8 km/h 96 % 0.0 mm
07:50 21.1 °C 20.4 °C 1016.1 hPa WSW 2.4 km/h 5.8 km/h 96 % 0.0 mm
07:55 21.1 °C 20.4 °C 1016.1 hPa NNW 0.3 km/h 4.3 km/h 96 % 0.0 mm
08:00 21.2 °C 20.6 °C 1016.1 hPa NNW 0.3 km/h 4.3 km/h 96 % 0.0 mm
08:05 21.3 °C 20.6 °C 1015.1 hPa NW 0.5 km/h 4.3 km/h 96 % 0.0 mm
08:10 21.4 °C 20.7 °C 1015.1 hPa WNW 0.2 km/h 3.2 km/h 96 % 0.0 mm
08:15 21.4 °C 20.6 °C 1015.1 hPa NNW 0.3 km/h 2.6 km/h 95 % 0.0 mm
08:20 21.5 °C 20.7 °C 1014.1 hPa WSW 0.8 km/h 4.7 km/h 95 % 0.0 mm
08:25 21.5 °C 20.7 °C 1014.1 hPa South 1.8 km/h 7.9 km/h 95 % 0.0 mm
08:30 21.6 °C 20.8 °C 1014.1 hPa South 2.6 km/h 7.9 km/h 95 % 0.0 mm
08:35 21.8 °C 20.9 °C 1016.1 hPa South 3.2 km/h 10.1 km/h 95 % 0.0 mm
08:40 22.0 °C 21.2 °C 1016.1 hPa South 4.2 km/h 10.1 km/h 95 % 0.0 mm
08:45 22.4 °C 21.6 °C 1016.1 hPa South 4.2 km/h 9.3 km/h 95 % 0.0 mm
08:50 22.8 °C 21.9 °C 1016.1 hPa East 3.2 km/h 9.3 km/h 95 % 0.0 mm
08:55 23.1 °C 22.1 °C 1016.1 hPa NNE 3.2 km/h 6.9 km/h 94 % 0.0 mm
09:00 23.4 °C 22.2 °C 1016.1 hPa North 2.6 km/h 6.1 km/h 93 % 0.0 mm
09:05 23.6 °C 22.4 °C 1016.1 hPa South 1.4 km/h 7.6 km/h 93 % 0.0 mm
09:10 23.7 °C 22.5 °C 1016.1 hPa SSW 2.6 km/h 7.6 km/h 93 % 0.0 mm
09:15 23.7 °C 22.3 °C 1016.1 hPa South 3.2 km/h 9.0 km/h 92 % 0.0 mm
09:20 23.7 °C 22.3 °C 1016.1 hPa SE 2.3 km/h 9.0 km/h 92 % 0.0 mm
09:25 23.5 °C 22.1 °C 1016.1 hPa NE 4.0 km/h 10.5 km/h 92 % 0.0 mm
09:30 23.5 °C 22.1 °C 1016.1 hPa ENE 5.1 km/h 10.5 km/h 92 % 0.0 mm
09:35 23.6 °C 22.1 °C 1016.1 hPa East 4.5 km/h 8.7 km/h 91 % 0.0 mm
09:40 23.6 °C 22.1 °C 1016.1 hPa NNE 2.9 km/h 7.9 km/h 91 % 0.0 mm
09:45 23.7 °C 22.2 °C 1016.1 hPa WNW 2.7 km/h 8.7 km/h 91 % 0.0 mm
09:50 23.8 °C 22.2 °C 1016.1 hPa SSW 6.0 km/h 11.9 km/h 91 % 0.0 mm
09:55 23.9 °C 22.2 °C 1016.1 hPa SSW 7.2 km/h 11.9 km/h 90 % 0.0 mm
10:00 24.1 °C 22.3 °C 1016.1 hPa SSW 4.7 km/h 10.5 km/h 90 % 0.0 mm
10:05 24.2 °C 22.3 °C 1015.1 hPa SE 1.4 km/h 5.8 km/h 89 % 0.0 mm
10:10 24.3 °C 22.4 °C 1015.1 hPa NW 0.2 km/h 3.2 km/h 89 % 0.0 mm
10:15 24.7 °C 22.8 °C 1015.1 hPa NW 0.5 km/h 4.3 km/h 89 % 0.0 mm
10:20 25.2 °C 23.1 °C 1015.1 hPa North 1.4 km/h 5.0 km/h 88 % 0.0 mm
10:25 25.7 °C 23.4 °C 1015.1 hPa East 1.3 km/h 5.0 km/h 87 % 0.0 mm
10:30 26.0 °C 23.7 °C 1015.1 hPa SSE 2.1 km/h 5.5 km/h 87 % 0.0 mm
10:35 26.8 °C 24.1 °C 1015.1 hPa South 3.7 km/h 5.8 km/h 85 % 0.0 mm
10:40 27.1 °C 23.8 °C 1015.1 hPa South 2.6 km/h 6.1 km/h 82 % 0.0 mm
10:45 27.6 °C 23.4 °C 1015.1 hPa SE 1.8 km/h 6.1 km/h 78 % 0.0 mm
10:50 27.8 °C 23.4 °C 1016.1 hPa SSE 1.6 km/h 4.7 km/h 77 % 0.0 mm
10:55 28.1 °C 23.0 °C 1016.1 hPa SSE 1.1 km/h 4.3 km/h 74 % 0.0 mm
11:00 28.3 °C 23.2 °C 1016.1 hPa ENE 1.3 km/h 6.1 km/h 74 % 0.0 mm
11:05 28.7 °C 23.6 °C 1016.1 hPa SE 2.3 km/h 7.6 km/h 74 % 0.0 mm
11:10 29.1 °C 23.8 °C 1016.1 hPa SSE 3.1 km/h 7.6 km/h 73 % 0.0 mm
11:15 29.5 °C 23.9 °C 1016.1 hPa SE 3.2 km/h 6.9 km/h 72 % 0.0 mm
11:20 29.9 °C 24.3 °C 1016.1 hPa SSE 3.7 km/h 6.9 km/h 72 % 0.0 mm
11:25 30.2 °C 23.9 °C 1016.1 hPa South 4.8 km/h 8.7 km/h 69 % 0.0 mm
11:30 30.4 °C 23.6 °C 1016.1 hPa SSE 4.7 km/h 9.0 km/h 67 % 0.0 mm
11:35 30.6 °C 23.5 °C 1016.1 hPa SSE 4.3 km/h 9.0 km/h 66 % 0.0 mm
11:40 30.7 °C 23.1 °C 1016.1 hPa SSE 5.1 km/h 10.5 km/h 64 % 0.0 mm
11:45 30.9 °C 22.2 °C 1016.1 hPa SE 5.6 km/h 10.5 km/h 60 % 0.0 mm
11:50 30.9 °C 21.1 °C 1015.1 hPa ESE 3.7 km/h 10.1 km/h 56 % 0.0 mm
11:55 30.8 °C 20.4 °C 1015.1 hPa East 1.9 km/h 5.5 km/h 54 % 0.0 mm
12:00 30.9 °C 20.8 °C 1015.1 hPa East 2.4 km/h 9.0 km/h 55 % 0.0 mm
12:05 31.2 °C 20.5 °C 1014.1 hPa East 3.1 km/h 9.0 km/h 53 % 0.0 mm
12:10 31.6 °C 18.9 °C 1014.1 hPa East 4.0 km/h 9.0 km/h 47 % 0.0 mm
12:15 31.7 °C 19.3 °C 1014.1 hPa East 4.5 km/h 11.1 km/h 48 % 0.0 mm
12:20 32.0 °C 19.6 °C 1014.1 hPa East 4.5 km/h 11.1 km/h 48 % 0.0 mm
12:25 32.1 °C 18.7 °C 1014.1 hPa East 4.7 km/h 12.6 km/h 45 % 0.0 mm
12:30 32.0 °C 18.6 °C 1014.1 hPa ENE 6.6 km/h 12.6 km/h 45 % 0.0 mm
12:35 32.0 °C 18.6 °C 1014.1 hPa ENE 6.3 km/h 11.9 km/h 45 % 0.0 mm
12:40 32.0 °C 18.6 °C 1014.1 hPa East 3.5 km/h 9.3 km/h 45 % 0.0 mm
12:45 32.0 °C 18.6 °C 1014.1 hPa East 3.1 km/h 9.7 km/h 45 % 0.0 mm
12:50 32.4 °C 18.6 °C 1014.1 hPa East 3.7 km/h 9.7 km/h 44 % 0.0 mm
12:55 32.6 °C 19.1 °C 1014.1 hPa ESE 3.9 km/h 9.3 km/h 45 % 0.0 mm
13:00 32.6 °C 19.1 °C 1014.1 hPa East 2.6 km/h 6.4 km/h 45 % 0.0 mm
13:05 32.4 °C 18.6 °C 1015.1 hPa WNW 1.8 km/h 6.4 km/h 44 % 0.0 mm
13:10 32.2 °C 18.8 °C 1015.1 hPa West 2.7 km/h 6.1 km/h 45 % 0.0 mm
13:15 32.1 °C 19.0 °C 1015.1 hPa West 2.4 km/h 6.1 km/h 46 % 0.0 mm
13:20 31.9 °C 19.5 °C 1015.1 hPa WSW 2.3 km/h 5.8 km/h 48 % 0.0 mm
13:25 31.7 °C 19.3 °C 1015.1 hPa WSW 3.9 km/h 5.8 km/h 48 % 0.0 mm
13:30 31.5 °C 19.5 °C 1015.1 hPa West 2.7 km/h 5.8 km/h 49 % 0.0 mm
13:35 31.3 °C 20.3 °C 1016.1 hPa NNW 1.4 km/h 4.3 km/h 52 % 0.0 mm
13:40 31.3 °C 19.6 °C 1016.1 hPa WSW 2.3 km/h 5.0 km/h 50 % 0.0 mm
13:45 31.8 °C 19.1 °C 1016.1 hPa SW 2.7 km/h 5.0 km/h 47 % 0.0 mm
13:50 32.2 °C 19.1 °C 1016.1 hPa SW 3.4 km/h 5.8 km/h 46 % 0.0 mm
13:55 32.9 °C 19.4 °C 1016.1 hPa SSW 5.3 km/h 9.7 km/h 45 % 0.0 mm
14:00 33.1 °C 19.2 °C 1016.1 hPa SSW 5.5 km/h 9.7 km/h 44 % 0.0 mm
14:05 33.2 °C 18.2 °C 1015.1 hPa West 3.5 km/h 8.7 km/h 41 % 0.0 mm
14:10 33.5 °C 18.4 °C 1015.1 hPa SSE 2.6 km/h 6.1 km/h 41 % 0.0 mm
14:15 33.5 °C 18.1 °C 1015.1 hPa SE 1.9 km/h 6.1 km/h 40 % 0.0 mm
14:20 33.8 °C 18.7 °C 1015.1 hPa ESE 1.6 km/h 5.5 km/h 41 % 0.0 mm
14:25 34.0 °C 18.9 °C 1015.1 hPa ESE 3.2 km/h 9.0 km/h 41 % 0.0 mm
14:30 34.0 °C 18.9 °C 1015.1 hPa East 3.5 km/h 10.1 km/h 41 % 0.0 mm
14:35 33.8 °C 19.5 °C 1014.1 hPa NNE 4.5 km/h 11.9 km/h 43 % 0.0 mm
14:40 33.8 °C 19.5 °C 1014.1 hPa North 5.3 km/h 11.9 km/h 43 % 0.0 mm
14:45 33.8 °C 19.5 °C 1014.1 hPa North 4.5 km/h 10.5 km/h 43 % 0.0 mm
14:50 33.9 °C 19.9 °C 1014.1 hPa ENE 4.3 km/h 8.7 km/h 44 % 0.0 mm
14:55 33.8 °C 19.5 °C 1014.1 hPa NE 5.3 km/h 13.0 km/h 43 % 0.0 mm
15:00 33.8 °C 19.8 °C 1014.1 hPa NE 5.6 km/h 13.0 km/h 44 % 0.0 mm
15:05 33.8 °C 19.5 °C 1013.1 hPa NE 5.5 km/h 10.5 km/h 43 % 0.0 mm
15:10 33.7 °C 19.0 °C 1013.1 hPa NE 5.5 km/h 10.5 km/h 42 % 0.0 mm
15:15 33.7 °C 19.0 °C 1013.1 hPa NNE 5.3 km/h 11.9 km/h 42 % 0.0 mm
15:20 33.7 °C 18.6 °C 1014.1 hPa NE 5.6 km/h 11.9 km/h 41 % 0.0 mm
15:25 33.8 °C 18.7 °C 1014.1 hPa NE 4.7 km/h 9.0 km/h 41 % 0.0 mm
15:30 33.9 °C 18.8 °C 1014.1 hPa NE 4.3 km/h 12.6 km/h 41 % 0.0 mm
15:35 34.0 °C 18.9 °C 1013.1 hPa ENE 5.6 km/h 14.0 km/h 41 % 0.0 mm
15:40 34.0 °C 18.5 °C 1013.1 hPa East 6.9 km/h 14.0 km/h 40 % 0.0 mm
15:45 34.0 °C 18.9 °C 1013.1 hPa East 7.4 km/h 13.0 km/h 41 % 0.0 mm
15:50 33.9 °C 18.4 °C 1013.1 hPa ENE 7.2 km/h 13.7 km/h 40 % 0.0 mm
15:55 34.0 °C 18.5 °C 1013.1 hPa ENE 6.1 km/h 13.7 km/h 40 % 0.0 mm
16:00 34.0 °C 18.5 °C 1013.1 hPa East 6.0 km/h 12.6 km/h 40 % 0.0 mm
16:05 33.7 °C 18.2 °C 1013.1 hPa East 7.2 km/h 16.9 km/h 40 % 0.0 mm
16:10 33.3 °C 17.9 °C 1013.1 hPa ENE 7.7 km/h 16.9 km/h 40 % 0.0 mm
16:16 33.1 °C 18.1 °C 1013.1 hPa East 6.6 km/h 14.0 km/h 41 % 0.0 mm
16:21 33.0 °C 18.0 °C 1013.1 hPa East 5.1 km/h 10.1 km/h 41 % 0.0 mm
16:26 32.8 °C 18.2 °C 1013.1 hPa East 4.5 km/h 10.1 km/h 42 % 0.0 mm
16:31 32.6 °C 18.0 °C 1013.1 hPa East 4.2 km/h 9.0 km/h 42 % 0.0 mm
16:36 32.4 °C 18.2 °C 1013.1 hPa ENE 4.0 km/h 9.3 km/h 43 % 0.0 mm
16:41 32.1 °C 17.6 °C 1013.1 hPa NE 3.1 km/h 9.3 km/h 42 % 0.0 mm
16:45 31.9 °C 17.8 °C 1013.1 hPa NE 3.2 km/h 3.2 km/h 43 % 0.0 mm
16:46 31.9 °C 18.1 °C 1013.1 hPa NE 2.4 km/h 2.4 km/h 44 % 0.0 mm
16:56 31.8 °C 18.1 °C 1013.1 hPa NE 1.9 km/h 2.3 km/h 44 % 0.0 mm
17:01 31.8 °C 18.8 °C 1013.1 hPa East 2.1 km/h 7.9 km/h 46 % 0.0 mm
17:06 31.9 °C 19.5 °C 1013.1 hPa East 3.2 km/h 6.9 km/h 48 % 0.0 mm
17:11 31.8 °C 19.4 °C 1013.1 hPa ENE 4.7 km/h 9.0 km/h 48 % 0.0 mm
17:16 31.8 °C 19.8 °C 1013.1 hPa ENE 4.2 km/h 10.8 km/h 49 % 0.0 mm
17:17 31.8 °C 19.8 °C 1013.1 hPa ENE 4.3 km/h 10.8 km/h 49 % 0.0 mm
17:22 31.7 °C 20.0 °C 1012.1 hPa ESE 3.2 km/h 10.8 km/h 50 % 0.0 mm
17:27 31.6 °C 20.2 °C 1012.1 hPa ESE 2.3 km/h 6.9 km/h 51 % 0.0 mm
17:28 31.6 °C 20.2 °C 1012.1 hPa ESE 1.9 km/h 6.9 km/h 51 % 0.0 mm
17:33 31.5 °C 20.4 °C 1011.1 hPa ESE 1.8 km/h 5.0 km/h 52 % 0.0 mm
17:38 31.4 °C 20.3 °C 1011.1 hPa ENE 2.9 km/h 6.1 km/h 52 % 0.0 mm
17:43 31.3 °C 20.6 °C 1011.1 hPa NE 2.6 km/h 6.1 km/h 53 % 0.0 mm
17:48 31.2 °C 20.2 °C 1011.1 hPa NNW 1.6 km/h 5.0 km/h 52 % 0.0 mm
17:53 31.1 °C 20.7 °C 1011.1 hPa WSW 1.6 km/h 5.0 km/h 54 % 0.0 mm
17:58 31.0 °C 20.9 °C 1011.1 hPa South 1.6 km/h 5.8 km/h 55 % 0.0 mm
18:03 30.9 °C 20.8 °C 1012.1 hPa South 1.9 km/h 5.8 km/h 55 % 0.0 mm
18:08 30.9 °C 20.5 °C 1012.1 hPa SSE 1.0 km/h 5.5 km/h 54 % 0.0 mm
18:13 30.9 °C 19.9 °C 1012.1 hPa NE 1.0 km/h 5.8 km/h 52 % 0.0 mm
18:18 30.9 °C 19.6 °C 1012.1 hPa NE 2.9 km/h 11.1 km/h 51 % 0.0 mm
18:23 30.8 °C 19.5 °C 1012.1 hPa NE 4.0 km/h 11.1 km/h 51 % 0.0 mm
18:28 30.7 °C 19.7 °C 1012.1 hPa NE 3.7 km/h 9.7 km/h 52 % 0.0 mm
18:33 30.5 °C 19.8 °C 1011.1 hPa NNE 3.2 km/h 10.5 km/h 53 % 0.0 mm
18:38 30.2 °C 19.9 °C 1011.1 hPa SW 3.9 km/h 10.5 km/h 54 % 0.0 mm
18:44 29.9 °C 20.7 °C 1011.1 hPa SSW 4.7 km/h 6.9 km/h 58 % 0.0 mm
18:49 29.6 °C 20.7 °C 1014.1 hPa SW 7.7 km/h 16.9 km/h 59 % 0.0 mm
18:54 29.3 °C 19.9 °C 1014.1 hPa WSW 9.7 km/h 20.1 km/h 57 % 0.0 mm
18:59 28.6 °C 17.4 °C 1014.1 hPa SW 10.6 km/h 21.6 km/h 51 % 0.0 mm
19:04 27.4 °C 15.7 °C 1016.1 hPa SW 15.3 km/h 45.7 km/h 49 % 0.0 mm
19:09 26.2 °C 16.4 °C 1016.1 hPa WSW 17.4 km/h 45.7 km/h 55 % 0.8 mm
19:14 24.9 °C 16.8 °C 1016.1 hPa West 12.9 km/h 32.0 km/h 61 % 6.1 mm
19:19 22.8 °C 17.7 °C 1014.1 hPa West 9.8 km/h 23.8 km/h 73 % 12.7 mm
19:24 22.0 °C 17.4 °C 1014.1 hPa West 10.5 km/h 21.2 km/h 75 % 15.5 mm
19:29 21.6 °C 17.4 °C 1014.1 hPa SW 10.9 km/h 28.5 km/h 77 % 16.0 mm
19:34 21.3 °C 17.9 °C 1016.1 hPa South 10.6 km/h 28.5 km/h 81 % 16.5 mm
19:39 21.2 °C 17.4 °C 1016.1 hPa WNW 10.6 km/h 28.5 km/h 79 % 17.5 mm
19:44 20.9 °C 17.3 °C 1016.1 hPa NW 9.3 km/h 21.2 km/h 80 % 18.3 mm
19:49 20.8 °C 17.6 °C 1015.1 hPa SE 7.4 km/h 15.8 km/h 82 % 18.5 mm
19:54 20.6 °C 17.4 °C 1015.1 hPa SSW 5.3 km/h 13.0 km/h 82 % 18.5 mm
19:59 20.5 °C 17.5 °C 1015.1 hPa North 3.1 km/h 7.6 km/h 83 % 18.5 mm
20:04 20.4 °C 17.6 °C 1014.1 hPa ENE 2.9 km/h 9.0 km/h 84 % 18.5 mm
20:09 20.4 °C 17.8 °C 1014.1 hPa ESE 5.5 km/h 13.0 km/h 85 % 18.0 mm
20:14 20.3 °C 17.9 °C 1014.1 hPa SSE 6.0 km/h 13.0 km/h 86 % 9.9 mm
20:19 20.2 °C 17.8 °C 1014.1 hPa WSW 5.1 km/h 9.0 km/h 86 % 3.8 mm
20:24 20.1 °C 17.9 °C 1014.1 hPa West 4.5 km/h 9.0 km/h 87 % 2.8 mm
20:29 20.0 °C 17.9 °C 1014.1 hPa NNE 2.7 km/h 6.9 km/h 88 % 2.5 mm
20:34 20.0 °C 17.9 °C 1013.1 hPa NE 3.4 km/h 10.5 km/h 88 % 2.0 mm
20:39 20.0 °C 17.9 °C 1013.1 hPa NE 3.4 km/h 10.5 km/h 88 % 0.8 mm
20:44 20.0 °C 18.1 °C 1013.1 hPa SSW 3.4 km/h 8.7 km/h 89 % 0.3 mm
20:49 20.0 °C 18.1 °C 1014.1 hPa SW 5.5 km/h 9.0 km/h 89 % 0.3 mm
20:54 20.0 °C 18.1 °C 1014.1 hPa WSW 5.1 km/h 9.0 km/h 89 % 0.0 mm
20:55 20.0 °C 18.1 °C 1014.1 hPa WSW 4.7 km/h 9.0 km/h 89 % 0.0 mm
21:00 20.0 °C 18.1 °C 1014.1 hPa West 3.1 km/h 6.1 km/h 89 % 0.0 mm
21:05 20.0 °C 18.3 °C 1014.1 hPa SSW 3.2 km/h 6.1 km/h 90 % 0.0 mm
21:10 20.0 °C 18.1 °C 1014.1 hPa SSE 2.9 km/h 5.8 km/h 89 % 0.0 mm
21:15 20.0 °C 18.3 °C 1014.1 hPa SSW 2.4 km/h 7.9 km/h 90 % 0.0 mm
21:20 19.9 °C 18.2 °C 1014.1 hPa WSW 1.8 km/h 7.9 km/h 90 % 0.0 mm
21:25 19.9 °C 18.4 °C 1014.1 hPa West 2.3 km/h 5.8 km/h 91 % 0.0 mm
21:30 19.9 °C 18.4 °C 1014.1 hPa West 2.4 km/h 5.8 km/h 91 % 0.0 mm
21:35 19.9 °C 18.4 °C 1014.1 hPa WSW 0.8 km/h 4.0 km/h 91 % 0.0 mm
21:40 19.8 °C 18.3 °C 1014.1 hPa SW 0.3 km/h 4.0 km/h 91 % 0.0 mm
21:41 19.8 °C 18.3 °C 1014.1 hPa SW 0.3 km/h 4.0 km/h 91 % 0.0 mm
21:46 19.8 °C 18.3 °C 1014.1 hPa Calm     91 % 0.0 mm
21:51 19.8 °C 18.3 °C 1013.1 hPa West 1.1 km/h 5.8 km/h 91 % 0.0 mm
21:56 19.8 °C 18.4 °C 1013.1 hPa West 1.6 km/h 5.8 km/h 92 % 0.0 mm
22:01 19.8 °C 18.4 °C 1013.1 hPa West 0.5 km/h 4.3 km/h 92 % 0.0 mm
22:06 19.7 °C 18.4 °C 1013.1 hPa WNW 0.5 km/h 6.1 km/h 92 % 0.0 mm
22:11 19.7 °C 18.4 °C 1013.1 hPa West 1.6 km/h 6.1 km/h 92 % 0.0 mm
22:16 19.7 °C 18.4 °C 1013.1 hPa West 1.3 km/h 4.0 km/h 92 % 0.0 mm
22:21 19.7 °C 18.4 °C 1014.1 hPa Calm     92 % 0.0 mm
22:26 19.7 °C 18.4 °C 1014.1 hPa Calm     92 % 0.0 mm
22:31 19.6 °C 18.3 °C 1014.1 hPa Calm     92 % 0.0 mm
22:36 19.6 °C 18.3 °C 1013.1 hPa NW 0.3 km/h 4.0 km/h 92 % 0.0 mm
22:41 19.6 °C 18.3 °C 1013.1 hPa NW 1.1 km/h 4.0 km/h 92 % 0.0 mm
22:46 19.6 °C 18.3 °C 1013.1 hPa NW 0.6 km/h 3.5 km/h 92 % 0.0 mm
22:51 19.5 °C 18.2 °C 1014.1 hPa ESE 0.3 km/h 4.3 km/h 92 % 0.0 mm
22:56 19.4 °C 18.1 °C 1014.1 hPa East 0.8 km/h 4.3 km/h 92 % 0.0 mm
23:01 19.4 °C 18.1 °C 1014.1 hPa ENE 0.6 km/h 4.3 km/h 92 % 0.0 mm
23:06 19.4 °C 18.1 °C 1013.1 hPa SSW 1.3 km/h 3.2 km/h 92 % 0.0 mm
23:11 19.4 °C 18.2 °C 1013.1 hPa SSW 2.3 km/h 4.7 km/h 93 % 0.0 mm
23:16 19.4 °C 18.1 °C 1013.1 hPa SSE 2.1 km/h 4.7 km/h 92 % 0.0 mm
23:21 19.4 °C 18.2 °C 1014.1 hPa ESE 1.0 km/h 4.3 km/h 93 % 0.0 mm
23:26 19.5 °C 18.3 °C 1014.1 hPa SSW 0.8 km/h 4.7 km/h 93 % 0.0 mm
23:31 19.5 °C 18.3 °C 1014.1 hPa SW 1.6 km/h 4.7 km/h 93 % 0.0 mm
23:36 19.5 °C 18.5 °C 1013.1 hPa NE 2.6 km/h 5.8 km/h 94 % 0.0 mm
23:41 19.5 °C 18.5 °C 1013.1 hPa NE 1.9 km/h 5.8 km/h 94 % 0.0 mm
23:46 19.5 °C 18.5 °C 1013.1 hPa SW 1.0 km/h 5.0 km/h 94 % 0.0 mm
23:51 19.5 °C 18.5 °C 1014.1 hPa SW 2.6 km/h 5.8 km/h 94 % 0.0 mm
23:56 19.5 °C 18.5 °C 1014.1 hPa SSW 3.1 km/h 5.8 km/h 94 % 0.0 mm
Vremenska postaja Senovo
Podatki zbrani iz Weather Underground - 3 mb

Script developed by  Jim McMurry - jmcmurry@mwt.net Adapted for the template by  Wim van der Kuil - Leuven-Template.eu

Vremenski podatki so objavljeni na:

WeatherCloud

Weather Underground

AWEKAS

HAMweather, WeatherForYou, PWS Weather

MapView

Geostik

Slovenia weather network

Oprema, ki se uporablja:

Vremenski program
Cumulus

Cumulus